createdAt,value
2022-12-13T00:00:14.916Z,86.59
2022-12-13T00:02:41.787Z,86.20
2022-12-13T00:05:12.080Z,86.58
2022-12-13T00:07:39.467Z,86.46
2022-12-13T00:10:06.852Z,86.24
2022-12-13T00:12:33.838Z,86.63
2022-12-13T00:15:03.377Z,85.98
2022-12-13T00:17:31.951Z,86.23
2022-12-13T00:19:58.467Z,86.72
2022-12-13T00:22:25.488Z,86.27
2022-12-13T00:24:55.185Z,86.53
2022-12-13T00:27:22.007Z,86.66
2022-12-13T00:29:48.573Z,86.11
2022-12-13T00:32:15.179Z,86.32
2022-12-13T00:34:45.020Z,86.26
2022-12-13T00:37:11.563Z,86.15
2022-12-13T00:39:38.779Z,86.24
2022-12-13T00:42:05.922Z,86.39
2022-12-13T00:44:32.588Z,86.14
2022-12-13T00:46:59.079Z,86.34
2022-12-13T00:49:27.902Z,86.32
2022-12-13T00:51:57.134Z,86.61
2022-12-13T00:54:23.710Z,86.46
2022-12-13T00:56:51.546Z,86.28
2022-12-13T00:59:18.168Z,86.02
2022-12-13T01:01:45.181Z,86.35
2022-12-13T01:04:14.921Z,85.91
2022-12-13T01:06:47.001Z,86.48
2022-12-13T01:09:19.927Z,86.43
2022-12-13T01:11:47.653Z,85.98
2022-12-13T01:14:17.542Z,85.99
2022-12-13T01:16:44.213Z,85.81
2022-12-13T01:19:10.761Z,85.62
2022-12-13T01:21:37.463Z,86.42
2022-12-13T01:24:06.188Z,85.93
2022-12-13T01:26:35.280Z,85.92
2022-12-13T01:29:02.050Z,85.84
2022-12-13T01:31:31.476Z,86.15
2022-12-13T01:33:58.166Z,85.64
2022-12-13T01:36:29.584Z,86.15
2022-12-13T01:38:58.420Z,86.05
2022-12-13T01:41:29.099Z,85.79
2022-12-13T01:44:03.251Z,85.97
2022-12-13T01:46:32.335Z,85.77
2022-12-13T01:49:02.402Z,85.85
2022-12-13T01:51:52.368Z,85.90
2022-12-13T01:54:33.655Z,85.75
2022-12-13T01:57:04.909Z,85.69
2022-12-13T01:59:32.496Z,86.04
2022-12-13T02:02:00.948Z,85.84
2022-12-13T02:04:43.617Z,86.09
2022-12-13T02:07:23.116Z,86.24
2022-12-13T02:09:56.502Z,86.09
2022-12-13T02:12:29.854Z,86.12
2022-12-13T02:15:00.483Z,86.13
2022-12-13T02:18:02.622Z,86.05
2022-12-13T02:20:48.803Z,86.39
2022-12-13T02:23:37.916Z,86.11
2022-12-13T02:26:16.283Z,86.11
2022-12-13T02:28:55.070Z,86.19
2022-12-13T02:31:26.228Z,86.50
2022-12-13T02:34:07.737Z,86.25
2022-12-13T02:36:57.529Z,86.51
2022-12-13T02:39:33.315Z,86.33
2022-12-13T02:42:21.912Z,86.82
2022-12-13T02:44:55.361Z,86.66
2022-12-13T02:47:24.432Z,86.76
2022-12-13T02:50:03.896Z,86.83
2022-12-13T02:52:34.657Z,86.56
2022-12-13T02:55:07.420Z,86.81
2022-12-13T02:57:42.666Z,86.75
2022-12-13T03:00:46.929Z,86.46
2022-12-13T03:03:37.585Z,86.68
2022-12-13T03:06:33.453Z,86.56
2022-12-13T03:09:26.202Z,86.59
2022-12-13T03:12:26.647Z,86.56
2022-12-13T03:15:06.033Z,86.43
2022-12-13T03:17:42.648Z,86.28
2022-12-13T03:20:12.670Z,86.40
2022-12-13T03:22:49.147Z,86.56
2022-12-13T03:25:30.834Z,86.46
2022-12-13T03:28:01.807Z,86.38
2022-12-13T03:30:32.969Z,86.91
2022-12-13T03:33:00.008Z,86.76
2022-12-13T03:35:34.359Z,86.49
2022-12-13T03:38:12.116Z,87.13
2022-12-13T03:40:38.985Z,86.42
2022-12-13T03:43:08.238Z,86.96
2022-12-13T03:45:34.750Z,86.81
2022-12-13T03:48:03.675Z,86.96
2022-12-13T03:50:30.198Z,86.75
2022-12-13T03:53:01.128Z,86.58
2022-12-13T03:55:28.251Z,86.84
2022-12-13T03:57:54.733Z,86.62
2022-12-13T04:00:21.516Z,87.04
2022-12-13T04:02:50.522Z,86.42
2022-12-13T04:05:19.408Z,86.60
2022-12-13T04:07:48.379Z,86.82
2022-12-13T04:10:25.929Z,86.66
2022-12-13T04:13:12.855Z,86.55
2022-12-13T04:15:39.942Z,86.74
2022-12-13T04:18:06.730Z,86.64
2022-12-13T04:20:33.289Z,86.62
2022-12-13T04:22:59.988Z,86.92
2022-12-13T04:25:26.864Z,86.74
2022-12-13T04:27:53.406Z,86.54
2022-12-13T04:30:19.985Z,86.26
2022-12-13T04:32:46.513Z,86.55
2022-12-13T04:35:13.221Z,86.24
2022-12-13T04:37:43.469Z,86.72
2022-12-13T04:40:10.939Z,86.92
2022-12-13T04:42:37.529Z,86.78
2022-12-13T04:45:04.511Z,86.63
2022-12-13T04:47:31.053Z,86.99
2022-12-13T04:49:57.737Z,87.35
2022-12-13T04:52:24.385Z,86.85
2022-12-13T04:54:55.953Z,86.70
2022-12-13T04:57:25.278Z,87.17
2022-12-13T04:59:51.953Z,86.77
2022-12-13T05:02:23.341Z,87.26
2022-12-13T05:04:53.762Z,86.75
2022-12-13T05:07:23.374Z,86.68
2022-12-13T05:09:52.381Z,86.99
2022-12-13T05:12:22.341Z,86.63
2022-12-13T05:14:50.945Z,86.99
2022-12-13T05:17:20.893Z,86.97
2022-12-13T05:19:47.450Z,86.79
2022-12-13T05:22:20.455Z,86.94
2022-12-13T05:24:47.984Z,87.12
2022-12-13T05:27:26.323Z,87.35
2022-12-13T05:30:02.923Z,86.70
2022-12-13T05:32:43.919Z,86.85
2022-12-13T05:35:22.436Z,86.88
2022-12-13T05:37:56.734Z,86.61
2022-12-13T05:40:24.379Z,86.91
2022-12-13T05:43:01.032Z,86.44
2022-12-13T05:45:29.504Z,86.58
2022-12-13T05:47:56.050Z,86.59
2022-12-13T05:50:22.571Z,86.45
2022-12-13T05:52:49.083Z,86.62
2022-12-13T05:55:16.004Z,86.19
2022-12-13T05:57:50.686Z,86.69
2022-12-13T06:00:28.636Z,86.78
2022-12-13T06:03:01.310Z,86.55
2022-12-13T06:05:30.634Z,86.51
2022-12-13T06:07:58.396Z,86.55
2022-12-13T06:10:34.013Z,86.70
2022-12-13T06:13:04.376Z,86.65
2022-12-13T06:15:48.729Z,86.69
2022-12-13T06:18:17.577Z,86.64
2022-12-13T06:20:44.488Z,86.80
2022-12-13T06:23:11.011Z,86.98
2022-12-13T06:25:37.740Z,87.15
2022-12-13T06:28:06.737Z,87.06
2022-12-13T06:30:35.508Z,87.37
2022-12-13T06:33:10.925Z,87.42
2022-12-13T06:35:41.500Z,87.40
2022-12-13T06:38:12.039Z,87.06
2022-12-13T06:40:42.466Z,87.67
2022-12-13T06:43:09.566Z,87.48
2022-12-13T06:45:40.440Z,87.49
2022-12-13T06:48:09.551Z,87.43
2022-12-13T06:50:36.185Z,87.79
2022-12-13T06:53:02.722Z,87.69
2022-12-13T06:55:31.362Z,87.61
2022-12-13T06:57:58.870Z,87.71
2022-12-13T07:00:35.720Z,87.39
2022-12-13T07:03:04.884Z,87.57
2022-12-13T07:05:31.441Z,87.48
2022-12-13T07:07:57.975Z,87.64
2022-12-13T07:10:24.547Z,87.59
2022-12-13T07:12:53.203Z,87.21
2022-12-13T07:15:19.768Z,87.20
2022-12-13T07:17:50.907Z,87.50
2022-12-13T07:20:19.301Z,87.20
2022-12-13T07:22:49.203Z,87.39
2022-12-13T07:25:27.898Z,87.16
2022-12-13T07:28:06.880Z,87.28
2022-12-13T07:30:40.744Z,87.15
2022-12-13T07:33:08.176Z,86.80
2022-12-13T07:35:36.994Z,87.41
2022-12-13T07:38:04.971Z,86.97
2022-12-13T07:40:35.359Z,87.17
2022-12-13T07:43:02.007Z,86.83
2022-12-13T07:45:29.089Z,86.87
2022-12-13T07:47:55.624Z,87.35
2022-12-13T07:50:24.567Z,86.73
2022-12-13T07:52:59.458Z,86.90
2022-12-13T07:55:33.625Z,86.58
2022-12-13T07:58:05.762Z,86.82
2022-12-13T08:00:33.248Z,86.67
2022-12-13T08:03:03.138Z,86.54
2022-12-13T08:05:38.843Z,86.30
2022-12-13T08:08:08.191Z,86.44
2022-12-13T08:10:35.306Z,86.28
2022-12-13T08:13:04.784Z,86.54
2022-12-13T08:15:31.657Z,86.07
2022-12-13T08:18:01.347Z,86.33
2022-12-13T08:20:28.133Z,86.27
2022-12-13T08:23:01.957Z,85.74
2022-12-13T08:25:30.518Z,86.14
2022-12-13T08:28:02.113Z,85.98
2022-12-13T08:30:30.049Z,86.61
2022-12-13T08:32:56.615Z,85.96
2022-12-13T08:35:23.203Z,86.19
2022-12-13T08:37:51.959Z,85.88
2022-12-13T08:40:18.471Z,86.00
2022-12-13T08:42:45.092Z,85.92
2022-12-13T08:45:12.451Z,85.45
2022-12-13T08:47:42.148Z,85.71
2022-12-13T08:50:09.088Z,85.33
2022-12-13T08:52:40.775Z,85.24
2022-12-13T08:55:13.888Z,85.50
2022-12-13T08:57:42.467Z,84.79
2022-12-13T09:00:14.892Z,84.75
2022-12-13T09:02:41.561Z,85.24
2022-12-13T09:05:12.959Z,84.76
2022-12-13T09:07:43.082Z,84.56
2022-12-13T09:10:25.778Z,84.15
2022-12-13T09:13:02.420Z,84.09
2022-12-13T09:15:34.278Z,84.02
2022-12-13T09:18:05.115Z,83.99
2022-12-13T09:20:40.848Z,83.39
2022-12-13T09:23:13.842Z,83.34
2022-12-13T09:25:54.973Z,83.92
2022-12-13T09:28:21.648Z,83.53
2022-12-13T09:30:48.180Z,83.36
2022-12-13T09:33:29.451Z,83.72
2022-12-13T09:35:57.516Z,83.16
2022-12-13T09:38:24.132Z,83.22
2022-12-13T09:40:58.501Z,82.99
2022-12-13T09:43:33.866Z,82.62
2022-12-13T09:46:44.202Z,82.58
2022-12-13T09:49:51.895Z,82.36
2022-12-13T09:52:22.587Z,81.43
2022-12-13T09:54:55.793Z,81.30
2022-12-13T09:57:34.221Z,81.95
2022-12-13T10:00:12.612Z,81.41
2022-12-13T10:03:00.196Z,81.53
2022-12-13T10:05:39.390Z,80.59
2022-12-13T10:08:13.948Z,80.34
2022-12-13T10:10:40.818Z,80.94
2022-12-13T10:13:20.356Z,80.71
2022-12-13T10:16:06.723Z,80.53
2022-12-13T10:18:38.151Z,80.30
2022-12-13T10:21:40.076Z,80.51
2022-12-13T10:24:36.497Z,80.41
2022-12-13T10:27:19.106Z,80.31
2022-12-13T10:30:14.016Z,80.65
2022-12-13T10:33:00.367Z,80.06
2022-12-13T10:35:36.394Z,80.34
2022-12-13T10:38:32.260Z,80.84
2022-12-13T10:41:01.217Z,80.17
2022-12-13T10:43:30.262Z,79.99
2022-12-13T10:45:57.546Z,79.91
2022-12-13T10:48:39.113Z,79.81
2022-12-13T10:51:14.223Z,80.05
2022-12-13T10:53:50.409Z,79.94
2022-12-13T10:56:23.658Z,80.03
2022-12-13T10:59:15.126Z,80.20
2022-12-13T11:01:46.255Z,79.93
2022-12-13T11:04:33.279Z,80.60
2022-12-13T11:07:09.558Z,80.41
2022-12-13T11:09:38.372Z,80.37
2022-12-13T11:12:19.829Z,80.41
2022-12-13T11:15:00.735Z,80.70
2022-12-13T11:17:30.556Z,80.20
2022-12-13T11:20:36.387Z,80.64
2022-12-13T11:23:27.796Z,80.13
2022-12-13T11:25:58.016Z,80.27
2022-12-13T11:28:42.491Z,80.28
2022-12-13T11:31:55.018Z,79.57
2022-12-13T11:34:48.357Z,79.45
2022-12-13T11:37:40.464Z,79.33
2022-12-13T11:40:28.915Z,78.89
2022-12-13T11:43:14.461Z,78.90
2022-12-13T11:45:46.616Z,78.93
2022-12-13T11:48:22.029Z,78.68
2022-12-13T11:50:55.200Z,78.85
2022-12-13T11:53:28.309Z,78.85
2022-12-13T11:56:00.498Z,78.74
2022-12-13T12:01:46.390Z,78.77
2022-12-13T12:04:21.974Z,78.62
2022-12-13T12:07:24.583Z,78.73
2022-12-13T12:10:02.153Z,78.58
2022-12-13T12:12:34.817Z,78.65
2022-12-13T12:15:26.658Z,78.83
2022-12-13T12:17:55.568Z,78.34
2022-12-13T12:20:42.460Z,78.70
2022-12-13T12:23:32.933Z,78.47
2022-12-13T12:26:15.831Z,78.70
2022-12-13T12:28:45.399Z,78.87
2022-12-13T12:31:50.431Z,78.87
2022-12-13T12:34:30.015Z,78.90
2022-12-13T12:37:11.851Z,79.26
2022-12-13T12:39:59.768Z,79.58
2022-12-13T12:43:14.420Z,79.52
2022-12-13T12:45:55.730Z,79.82
2022-12-13T12:48:56.612Z,80.27
2022-12-13T12:51:45.862Z,79.92
2022-12-13T12:54:32.654Z,80.45
2022-12-13T12:57:20.331Z,80.48
2022-12-13T13:00:13.176Z,80.52
2022-12-13T13:02:49.229Z,80.39
2022-12-13T13:05:27.959Z,80.85
2022-12-13T13:08:15.844Z,80.87
2022-12-13T13:10:50.204Z,80.61
2022-12-13T13:13:46.525Z,80.96
2022-12-13T13:16:28.880Z,80.82
2022-12-13T13:18:59.810Z,80.46
2022-12-13T13:21:27.695Z,80.93
2022-12-13T13:24:14.620Z,80.94
2022-12-13T13:26:54.393Z,80.45
2022-12-13T13:29:27.282Z,80.72
2022-12-13T13:32:29.422Z,80.94
2022-12-13T13:35:28.667Z,80.88
2022-12-13T13:37:55.534Z,80.43
2022-12-13T13:40:31.034Z,80.62
2022-12-13T13:43:12.786Z,81.13
2022-12-13T13:45:51.711Z,80.83
2022-12-13T13:48:37.097Z,80.92
2022-12-13T13:51:22.445Z,80.99
2022-12-13T13:54:16.989Z,81.23
2022-12-13T13:57:08.246Z,81.28
2022-12-13T13:59:49.155Z,81.04
2022-12-13T14:02:24.725Z,81.20
2022-12-13T14:05:16.044Z,81.07
2022-12-13T14:08:02.776Z,81.48
2022-12-13T14:11:00.608Z,81.65
2022-12-13T14:13:45.994Z,81.52
2022-12-13T14:16:20.317Z,81.36
2022-12-13T14:19:15.634Z,81.67
2022-12-13T14:22:11.726Z,81.41
2022-12-13T14:24:44.463Z,81.72
2022-12-13T14:27:25.998Z,81.66
2022-12-13T14:29:58.408Z,81.95
2022-12-13T14:32:31.238Z,81.83
2022-12-13T14:34:59.559Z,81.74
2022-12-13T14:37:56.810Z,82.18
2022-12-13T14:40:26.534Z,82.40
2022-12-13T14:42:56.397Z,82.13
2022-12-13T14:45:29.443Z,81.84
2022-12-13T14:48:01.620Z,82.16
2022-12-13T14:50:32.325Z,82.09
2022-12-13T14:53:00.516Z,82.51
2022-12-13T14:55:38.523Z,82.02
2022-12-13T14:58:19.039Z,82.04
2022-12-13T15:00:46.114Z,82.28
2022-12-13T15:03:23.719Z,82.84
2022-12-13T15:05:55.077Z,82.81
2022-12-13T15:08:22.258Z,82.38
2022-12-13T15:10:52.341Z,82.89
2022-12-13T15:13:44.880Z,83.09
2022-12-13T15:16:19.656Z,82.55
2022-12-13T15:18:50.510Z,82.94
2022-12-13T15:21:25.617Z,83.18
2022-12-13T15:23:53.213Z,82.70
2022-12-13T15:26:28.566Z,83.25
2022-12-13T15:29:00.950Z,83.26
2022-12-13T15:31:28.250Z,83.04
2022-12-13T15:34:01.384Z,83.30
2022-12-13T15:36:29.535Z,83.14
2022-12-13T15:38:55.982Z,83.00
2022-12-13T15:41:29.602Z,83.19
2022-12-13T15:44:17.759Z,83.23
2022-12-13T15:46:46.103Z,83.03
2022-12-13T15:49:26.049Z,83.35
2022-12-13T15:52:26.570Z,83.32
2022-12-13T15:55:00.967Z,83.53
2022-12-13T15:57:30.813Z,83.17
2022-12-13T16:00:07.852Z,82.89
2022-12-13T16:02:35.505Z,83.32
2022-12-13T16:05:07.911Z,83.32
2022-12-13T16:07:38.244Z,83.80
2022-12-13T16:10:06.816Z,83.71
2022-12-13T16:12:40.158Z,83.66
2022-12-13T16:15:29.620Z,83.36
2022-12-13T16:18:21.033Z,83.90
2022-12-13T16:20:54.022Z,83.70
2022-12-13T16:23:26.714Z,83.93
2022-12-13T16:25:54.357Z,83.76
2022-12-13T16:28:26.161Z,84.42
2022-12-13T16:30:53.076Z,84.27
2022-12-13T16:33:27.174Z,84.55
2022-12-13T16:35:55.543Z,84.22
2022-12-13T16:38:25.858Z,83.86
2022-12-13T16:40:55.405Z,83.84
2022-12-13T16:43:33.381Z,84.43
2022-12-13T16:47:12.188Z,84.26
2022-12-13T16:48:50.942Z,83.83
2022-12-13T16:51:18.221Z,84.18
2022-12-13T16:53:44.920Z,83.74
2022-12-13T16:56:14.842Z,83.83
2022-12-13T16:58:46.068Z,84.18
2022-12-13T17:01:20.190Z,83.88
2022-12-13T17:03:47.888Z,84.61
2022-12-13T17:06:15.979Z,84.21
2022-12-13T17:08:45.062Z,84.52
2022-12-13T17:11:17.534Z,83.95
2022-12-13T17:13:47.041Z,84.60
2022-12-13T17:16:14.190Z,84.25
2022-12-13T17:18:40.962Z,84.32
2022-12-13T17:21:08.786Z,84.82
2022-12-13T17:23:37.758Z,84.01
2022-12-13T17:26:06.369Z,84.61
2022-12-13T17:28:33.139Z,84.10
2022-12-13T17:31:14.665Z,85.02
2022-12-13T17:33:42.314Z,84.58
2022-12-13T17:36:13.607Z,84.71
2022-12-13T17:38:45.725Z,84.42
2022-12-13T17:41:15.979Z,84.46
2022-12-13T17:43:45.547Z,84.51
2022-12-13T17:46:14.716Z,84.52
2022-12-13T17:48:42.577Z,84.31
2022-12-13T17:51:11.430Z,83.73
2022-12-13T17:53:42.730Z,84.37
2022-12-13T17:56:17.769Z,84.20
2022-12-13T17:58:44.351Z,84.14
2022-12-13T18:01:21.821Z,84.39
2022-12-13T18:03:51.448Z,84.00
2022-12-13T18:06:18.464Z,84.35
2022-12-13T18:08:45.599Z,84.33
2022-12-13T18:14:05.303Z,83.98
2022-12-13T18:16:37.602Z,84.38
2022-12-13T18:19:07.631Z,84.66
2022-12-13T18:21:37.506Z,84.67
2022-12-13T18:24:08.078Z,84.24
2022-12-13T18:26:37.137Z,84.64
2022-12-13T18:29:04.664Z,84.26
2022-12-13T18:31:34.364Z,84.47
2022-12-13T18:34:01.466Z,84.16
2022-12-13T18:36:28.262Z,84.58
2022-12-13T18:38:54.917Z,84.49
2022-12-13T18:41:24.337Z,84.13
2022-12-13T18:44:02.091Z,84.29
2022-12-13T18:46:30.385Z,84.15
2022-12-13T18:48:57.933Z,85.01
2022-12-13T18:51:27.285Z,84.43
2022-12-13T18:53:56.630Z,85.07
2022-12-13T18:56:26.012Z,84.43
2022-12-13T18:58:52.760Z,84.93
2022-12-13T19:01:20.607Z,84.61
2022-12-13T19:03:48.740Z,84.13
2022-12-13T19:06:21.648Z,84.60
2022-12-13T19:08:51.455Z,84.12
2022-12-13T19:11:19.297Z,84.54
2022-12-13T19:13:46.639Z,84.96
2022-12-13T19:16:15.430Z,84.41
2022-12-13T19:18:42.476Z,84.44
2022-12-13T19:21:12.431Z,84.39
2022-12-13T19:23:40.755Z,83.94
2022-12-13T19:26:13.299Z,84.56
2022-12-13T19:28:41.599Z,84.33
2022-12-13T19:31:16.967Z,84.25
2022-12-13T19:33:43.909Z,84.48
2022-12-13T19:36:13.877Z,84.40
2022-12-13T19:38:42.010Z,83.84
2022-12-13T19:41:10.584Z,83.83
2022-12-13T19:43:37.205Z,84.46
2022-12-13T19:46:04.396Z,84.62
2022-12-13T19:48:31.492Z,84.34
2022-12-13T19:51:00.195Z,84.27
2022-12-13T19:53:30.339Z,84.25
2022-12-13T19:55:59.321Z,84.04
2022-12-13T19:58:26.757Z,83.89
2022-12-13T20:00:53.723Z,83.95
2022-12-13T20:03:20.392Z,84.45
2022-12-13T20:05:56.810Z,83.76
2022-12-13T20:08:23.486Z,83.91
2022-12-13T20:10:57.207Z,84.29
2022-12-13T20:13:26.520Z,84.54
2022-12-13T20:15:54.040Z,83.63
2022-12-13T20:18:21.583Z,84.27
2022-12-13T20:21:10.539Z,83.92
2022-12-13T20:23:37.290Z,83.97
2022-12-13T20:26:07.292Z,83.56
2022-12-13T20:28:33.900Z,84.08
2022-12-13T20:31:20.675Z,84.75
2022-12-13T20:33:48.052Z,84.33
2022-12-13T20:36:24.827Z,84.14
2022-12-13T20:38:58.425Z,84.35
2022-12-13T20:41:27.546Z,84.02
2022-12-13T20:43:55.791Z,83.87
2022-12-13T20:46:23.783Z,84.32
2022-12-13T20:48:51.311Z,84.90
2022-12-13T20:51:20.788Z,84.07
2022-12-13T20:53:49.264Z,84.22
2022-12-13T20:56:18.708Z,84.20
2022-12-13T20:58:45.390Z,84.58
2022-12-13T21:01:17.935Z,84.74
2022-12-13T21:03:47.468Z,84.61
2022-12-13T21:06:14.223Z,84.53
2022-12-13T21:08:53.905Z,84.67
2022-12-13T21:11:30.322Z,84.78
2022-12-13T21:14:11.213Z,84.27
2022-12-13T21:16:44.233Z,85.05
2022-12-13T21:19:16.160Z,84.99
2022-12-13T21:21:43.184Z,84.67
2022-12-13T21:24:13.511Z,84.43
2022-12-13T21:26:40.040Z,84.55
2022-12-13T21:29:10.997Z,84.16
2022-12-13T21:31:39.319Z,83.66
2022-12-13T21:34:06.606Z,84.54
2022-12-13T21:36:42.552Z,83.94
2022-12-13T21:39:17.781Z,83.83
2022-12-13T21:41:44.803Z,84.17
2022-12-13T21:44:12.860Z,83.55
2022-12-13T21:49:25.997Z,83.49
2022-12-13T21:51:52.544Z,83.61
2022-12-13T21:54:19.286Z,82.91
2022-12-13T21:57:04.215Z,82.99
2022-12-13T21:59:31.827Z,83.07
2022-12-13T22:02:17.799Z,83.46
2022-12-13T22:04:52.746Z,83.42
2022-12-13T22:07:23.647Z,83.06
2022-12-13T22:09:51.337Z,83.19
2022-12-13T22:12:26.107Z,82.61
2022-12-13T22:14:56.007Z,82.68
2022-12-13T22:17:31.354Z,82.76
2022-12-13T22:20:02.354Z,82.43
2022-12-13T22:22:31.521Z,82.27
2022-12-13T22:25:00.488Z,82.36
2022-12-13T22:27:29.511Z,82.28
2022-12-13T22:29:57.877Z,82.27
2022-12-13T22:32:27.115Z,82.24
2022-12-13T22:34:54.295Z,81.79
2022-12-13T22:37:21.333Z,82.24
2022-12-13T22:39:47.882Z,82.15
2022-12-13T22:42:14.631Z,81.82
2022-12-13T22:44:43.662Z,82.03
2022-12-13T22:47:10.394Z,82.62
2022-12-13T22:49:36.991Z,82.15
2022-12-13T22:52:03.654Z,82.16
2022-12-13T22:54:30.148Z,82.22
2022-12-13T22:56:58.926Z,82.15
2022-12-13T22:59:28.697Z,81.84
2022-12-13T23:02:02.135Z,81.83
2022-12-13T23:04:29.988Z,82.69
2022-12-13T23:06:56.526Z,82.44
2022-12-13T23:09:23.201Z,82.20
2022-12-13T23:12:08.295Z,82.42
2022-12-13T23:14:34.892Z,81.54
2022-12-13T23:17:02.392Z,82.09
2022-12-13T23:19:49.843Z,82.01
2022-12-13T23:22:16.428Z,81.54
2022-12-13T23:24:45.258Z,82.09
2022-12-13T23:27:11.808Z,82.13
2022-12-13T23:29:38.463Z,81.83
2022-12-13T23:32:05.197Z,81.74
2022-12-13T23:34:31.732Z,82.39
2022-12-13T23:36:58.512Z,81.50
2022-12-13T23:39:25.256Z,82.24
2022-12-13T23:41:52.061Z,81.76
2022-12-13T23:44:18.555Z,81.63
2022-12-13T23:46:48.896Z,81.87
2022-12-13T23:49:15.667Z,81.35
2022-12-13T23:51:42.287Z,81.01
2022-12-13T23:54:09.880Z,81.50
2022-12-13T23:56:36.457Z,81.60
2022-12-13T23:59:05.511Z,81.72
